Yuncos, Spain
Current Conditions -  °F | °C
As of 7:00 PM on Wednesday 28 Jan 2015 (Local Time) from LEGT Reporting Station
Clear Clear  
Wind Chill: 52°   Ceiling: Unl
Heat Index: 52°   Visibility: 6mi
Dew Point: 32°   Wind: 2mph
Humidity: 47%   Direction: NA
Pressure: 30.18"   Gusts: NA
Location:  40.09°N, 3.87°W
Report Text: LEGT 281800Z VRB02KT CAVOK 11/00 Q1022
Loading
Personal Weather Stations






























Interactive Weather Map New forecast layout! Learn more

10-Day Weather Forecast

Advertisements
Track Severe Weather on mobile